sensor_id;sensor_type;location;lat;lon;timestamp;temperature;humidity
55988;DHT22;67216;50.930;4.514;2023-02-28T05:19:15;-0.90;86.70
55988;DHT22;67216;50.930;4.514;2023-02-28T05:21:49;-0.90;86.80
55988;DHT22;67216;50.930;4.514;2023-02-28T05:24:15;-0.90;86.80
55988;DHT22;67216;50.930;4.514;2023-02-28T05:26:49;-0.70;86.60
55988;DHT22;67216;50.930;4.514;2023-02-28T05:29:16;-0.60;85.70
55988;DHT22;67216;50.930;4.514;2023-02-28T05:31:42;-0.30;85.00
55988;DHT22;67216;50.930;4.514;2023-02-28T05:34:07;-0.20;84.40
55988;DHT22;67216;50.930;4.514;2023-02-28T05:36:33;-0.20;83.30
55988;DHT22;67216;50.930;4.514;2023-02-28T05:39:01;-0.10;83.20
55988;DHT22;67216;50.930;4.514;2023-02-28T05:41:28;-0.10;83.00
55988;DHT22;67216;50.930;4.514;2023-02-28T05:43:54;-0.10;82.80
55988;DHT22;67216;50.930;4.514;2023-02-28T05:46:20;-0.10;82.80
55988;DHT22;67216;50.930;4.514;2023-02-28T05:48:47;0.30;82.40
55988;DHT22;67216;50.930;4.514;2023-02-28T05:51:13;0.60;81.00
55988;DHT22;67216;50.930;4.514;2023-02-28T05:53:38;0.60;79.50
55988;DHT22;67216;50.930;4.514;2023-02-28T05:56:04;0.20;80.60
55988;DHT22;67216;50.930;4.514;2023-02-28T05:58:31;0.20;81.70
55988;DHT22;67216;50.930;4.514;2023-02-28T06:00:57;0.10;82.10
55988;DHT22;67216;50.930;4.514;2023-02-28T06:03:23;0.10;82.40
55988;DHT22;67216;50.930;4.514;2023-02-28T06:05:49;0.10;82.40
55988;DHT22;67216;50.930;4.514;2023-02-28T06:08:16;0.10;82.80
55988;DHT22;67216;50.930;4.514;2023-02-28T06:10:41;0.10;82.80
55988;DHT22;67216;50.930;4.514;2023-02-28T06:13:07;0.20;82.50
55988;DHT22;67216;50.930;4.514;2023-02-28T06:15:33;0.20;82.50
55988;DHT22;67216;50.930;4.514;2023-02-28T06:17:59;0.20;82.50
55988;DHT22;67216;50.930;4.514;2023-02-28T06:20:27;0.20;82.50
55988;DHT22;67216;50.930;4.514;2023-02-28T06:22:58;0.30;82.50
55988;DHT22;67216;50.930;4.514;2023-02-28T06:25:25;0.40;82.00
55988;DHT22;67216;50.930;4.514;2023-02-28T06:27:51;0.40;81.60
55988;DHT22;67216;50.930;4.514;2023-02-28T06:30:17;0.40;81.90
55988;DHT22;67216;50.930;4.514;2023-02-28T06:32:43;0.30;81.90
55988;DHT22;67216;50.930;4.514;2023-02-28T06:35:08;0.40;82.00
55988;DHT22;67216;50.930;4.514;2023-02-28T06:37:34;0.40;82.00
55988;DHT22;67216;50.930;4.514;2023-02-28T06:40:00;0.40;81.70
55988;DHT22;67216;50.930;4.514;2023-02-28T06:42:26;0.50;82.00
55988;DHT22;67216;50.930;4.514;2023-02-28T06:44:54;0.70;82.00
55988;DHT22;67216;50.930;4.514;2023-02-28T06:47:21;1.20;81.00
55988;DHT22;67216;50.930;4.514;2023-02-28T06:49:47;2.00;78.60
55988;DHT22;67216;50.930;4.514;2023-02-28T06:52:13;3.10;75.70
55988;DHT22;67216;50.930;4.514;2023-02-28T06:54:39;3.90;70.80
55988;DHT22;67216;50.930;4.514;2023-02-28T06:57:05;4.40;67.80
55988;DHT22;67216;50.930;4.514;2023-02-28T06:59:31;5.50;65.90
55988;DHT22;67216;50.930;4.514;2023-02-28T07:01:56;6.40;61.60
55988;DHT22;67216;50.930;4.514;2023-02-28T07:04:22;6.90;58.50
55988;DHT22;67216;50.930;4.514;2023-02-28T07:06:48;7.30;57.10
55988;DHT22;67216;50.930;4.514;2023-02-28T07:09:13;8.30;55.50
55988;DHT22;67216;50.930;4.514;2023-02-28T07:11:40;8.10;54.00
55988;DHT22;67216;50.930;4.514;2023-02-28T07:14:06;8.60;52.70
55988;DHT22;67216;50.930;4.514;2023-02-28T07:16:32;8.50;52.70
55988;DHT22;67216;50.930;4.514;2023-02-28T07:18:58;8.70;52.10
55988;DHT22;67216;50.930;4.514;2023-02-28T07:21:25;8.50;52.00
55988;DHT22;67216;50.930;4.514;2023-02-28T07:23:51;9.00;52.20
55988;DHT22;67216;50.930;4.514;2023-02-28T07:26:18;9.40;50.50
55988;DHT22;67216;50.930;4.514;2023-02-28T07:28:46;9.80;49.50
55988;DHT22;67216;50.930;4.514;2023-02-28T07:31:13;10.50;47.50
55988;DHT22;67216;50.930;4.514;2023-02-28T07:33:39;9.70;47.80
55988;DHT22;67216;50.930;4.514;2023-02-28T07:36:10;9.50;48.60
55988;DHT22;67216;50.930;4.514;2023-02-28T07:38:42;10.40;48.10
55988;DHT22;67216;50.930;4.514;2023-02-28T07:41:08;10.80;46.60
55988;DHT22;67216;50.930;4.514;2023-02-28T07:43:35;11.70;44.20
55988;DHT22;67216;50.930;4.514;2023-02-28T07:46:06;11.50;42.80
55988;DHT22;67216;50.930;4.514;2023-02-28T07:48:32;11.80;44.60
55988;DHT22;67216;50.930;4.514;2023-02-28T07:50:59;12.30;42.40
55988;DHT22;67216;50.930;4.514;2023-02-28T07:53:25;12.20;40.90
55988;DHT22;67216;50.930;4.514;2023-02-28T07:55:54;11.50;42.20
55988;DHT22;67216;50.930;4.514;2023-02-28T07:58:20;11.50;43.40
55988;DHT22;67216;50.930;4.514;2023-02-28T08:00:45;10.80;42.80
55988;DHT22;67216;50.930;4.514;2023-02-28T08:03:12;10.80;43.90
55988;DHT22;67216;50.930;4.514;2023-02-28T08:05:39;9.50;45.50
55988;DHT22;67216;50.930;4.514;2023-02-28T08:08:06;9.10;46.30
55988;DHT22;67216;50.930;4.514;2023-02-28T08:10:32;7.90;47.80
55988;DHT22;67216;50.930;4.514;2023-02-28T08:12:58;7.30;50.70
55988;DHT22;67216;50.930;4.514;2023-02-28T08:15:23;7.50;50.40
55988;DHT22;67216;50.930;4.514;2023-02-28T08:17:49;7.30;51.30
55988;DHT22;67216;50.930;4.514;2023-02-28T08:20:15;8.00;49.20
55988;DHT22;67216;50.930;4.514;2023-02-28T08:22:40;8.60;48.20
55988;DHT22;67216;50.930;4.514;2023-02-28T08:25:07;8.90;47.20
55988;DHT22;67216;50.930;4.514;2023-02-28T08:27:33;8.70;46.00
55988;DHT22;67216;50.930;4.514;2023-02-28T08:29:59;9.10;46.60
55988;DHT22;67216;50.930;4.514;2023-02-28T08:32:25;9.10;45.10
55988;DHT22;67216;50.930;4.514;2023-02-28T08:34:50;9.30;45.30
55988;DHT22;67216;50.930;4.514;2023-02-28T08:37:16;9.10;44.90
55988;DHT22;67216;50.930;4.514;2023-02-28T08:39:42;8.80;45.50
55988;DHT22;67216;50.930;4.514;2023-02-28T08:42:08;8.20;45.80
55988;DHT22;67216;50.930;4.514;2023-02-28T08:44:34;8.40;46.40
55988;DHT22;67216;50.930;4.514;2023-02-28T08:46:59;8.50;46.00
55988;DHT22;67216;50.930;4.514;2023-02-28T08:49:25;8.60;46.40
55988;DHT22;67216;50.930;4.514;2023-02-28T08:51:51;8.40;46.20
55988;DHT22;67216;50.930;4.514;2023-02-28T08:54:16;8.10;46.00
55988;DHT22;67216;50.930;4.514;2023-02-28T08:56:45;8.00;46.70
55988;DHT22;67216;50.930;4.514;2023-02-28T08:59:11;8.40;46.20
55988;DHT22;67216;50.930;4.514;2023-02-28T09:01:37;8.30;46.10
55988;DHT22;67216;50.930;4.514;2023-02-28T09:04:03;8.80;44.80
55988;DHT22;67216;50.930;4.514;2023-02-28T09:06:28;9.10;43.80
55988;DHT22;67216;50.930;4.514;2023-02-28T09:08:57;9.20;43.70
55988;DHT22;67216;50.930;4.514;2023-02-28T09:11:27;9.00;43.40
55988;DHT22;67216;50.930;4.514;2023-02-28T09:13:53;9.20;44.60
55988;DHT22;67216;50.930;4.514;2023-02-28T09:16:21;9.20;43.00
55988;DHT22;67216;50.930;4.514;2023-02-28T09:18:47;8.70;42.50
55988;DHT22;67216;50.930;4.514;2023-02-28T09:21:15;8.50;43.70
55988;DHT22;67216;50.930;4.514;2023-02-28T09:23:44;8.10;43.90
55988;DHT22;67216;50.930;4.514;2023-02-28T09:26:17;8.10;43.80
55988;DHT22;67216;50.930;4.514;2023-02-28T09:28:43;8.50;43.10
55988;DHT22;67216;50.930;4.514;2023-02-28T09:31:22;8.60;42.70
55988;DHT22;67216;50.930;4.514;2023-02-28T09:33:50;9.20;42.00
55988;DHT22;67216;50.930;4.514;2023-02-28T09:36:16;9.90;40.40
55988;DHT22;67216;50.930;4.514;2023-02-28T09:38:42;9.30;40.10
55988;DHT22;67216;50.930;4.514;2023-02-28T09:43:49;8.70;40.80
55988;DHT22;67216;50.930;4.514;2023-02-28T09:46:29;8.20;41.60
55988;DHT22;67216;50.930;4.514;2023-02-28T09:48:57;7.80;42.40
55988;DHT22;67216;50.930;4.514;2023-02-28T09:54:16;7.30;43.90
55988;DHT22;67216;50.930;4.514;2023-02-28T10:00:06;6.20;45.50
55988;DHT22;67216;50.930;4.514;2023-02-28T10:05:26;4.80;48.70
55988;DHT22;67216;50.930;4.514;2023-02-28T10:08:04;4.70;48.20
55988;DHT22;67216;50.930;4.514;2023-02-28T10:10:44;4.70;48.30
55988;DHT22;67216;50.930;4.514;2023-02-28T10:22:04;4.80;48.20
55988;DHT22;67216;50.930;4.514;2023-02-28T10:24:44;5.00;48.10
55988;DHT22;67216;50.930;4.514;2023-02-28T10:27:16;5.00;43.90
55988;DHT22;67216;50.930;4.514;2023-02-28T10:29:54;4.80;42.90
55988;DHT22;67216;50.930;4.514;2023-02-28T10:32:23;4.70;45.90
55988;DHT22;67216;50.930;4.514;2023-02-28T10:34:58;4.70;45.40
55988;DHT22;67216;50.930;4.514;2023-02-28T10:37:24;4.90;45.00
55988;DHT22;67216;50.930;4.514;2023-02-28T10:39:50;4.80;44.90
55988;DHT22;67216;50.930;4.514;2023-02-28T10:45:12;4.80;46.30
55988;DHT22;67216;50.930;4.514;2023-02-28T10:48:04;4.80;46.10
55988;DHT22;67216;50.930;4.514;2023-02-28T10:50:41;4.80;46.20
55988;DHT22;67216;50.930;4.514;2023-02-28T10:53:24;5.00;45.70
55988;DHT22;67216;50.930;4.514;2023-02-28T10:55:57;5.10;47.60
55988;DHT22;67216;50.930;4.514;2023-02-28T10:58:25;5.00;44.70
55988;DHT22;67216;50.930;4.514;2023-02-28T11:00:52;4.60;45.40
55988;DHT22;67216;50.930;4.514;2023-02-28T11:03:25;4.50;46.80
55988;DHT22;67216;50.930;4.514;2023-02-28T11:05:54;4.70;46.00
55988;DHT22;67216;50.930;4.514;2023-02-28T11:08:20;4.80;45.90
55988;DHT22;67216;50.930;4.514;2023-02-28T11:10:47;4.80;46.00
55988;DHT22;67216;50.930;4.514;2023-02-28T11:13:24;5.00;45.50
55988;DHT22;67216;50.930;4.514;2023-02-28T11:16:02;5.00;43.60
55988;DHT22;67216;50.930;4.514;2023-02-28T11:18:41;4.80;43.20
55988;DHT22;67216;50.930;4.514;2023-02-28T11:21:09;4.70;44.30
55988;DHT22;67216;50.930;4.514;2023-02-28T11:23:37;4.80;45.30
55988;DHT22;67216;50.930;4.514;2023-02-28T11:26:05;4.80;45.00
55988;DHT22;67216;50.930;4.514;2023-02-28T11:28:40;5.10;44.80
55988;DHT22;67216;50.930;4.514;2023-02-28T11:36:20;4.90;48.10
55988;DHT22;67216;50.930;4.514;2023-02-28T11:38:46;5.00;45.90
55988;DHT22;67216;50.930;4.514;2023-02-28T11:44:07;5.20;45.50
55988;DHT22;67216;50.930;4.514;2023-02-28T11:46:51;5.30;45.40
55988;DHT22;67216;50.930;4.514;2023-02-28T11:49:42;5.10;45.20
55988;DHT22;67216;50.930;4.514;2023-02-28T11:52:20;5.40;45.50
55988;DHT22;67216;50.930;4.514;2023-02-28T11:57:36;5.30;44.20
55988;DHT22;67216;50.930;4.514;2023-02-28T12:05:49;5.30;44.80
55988;DHT22;67216;50.930;4.514;2023-02-28T12:11:14;5.30;42.70
55988;DHT22;67216;50.930;4.514;2023-02-28T12:14:14;5.30;43.20
55988;DHT22;67216;50.930;4.514;2023-02-28T12:17:12;5.50;42.50
55988;DHT22;67216;50.930;4.514;2023-02-28T12:25:31;5.60;42.40
55988;DHT22;67216;50.930;4.514;2023-02-28T12:28:03;5.60;41.30
55988;DHT22;67216;50.930;4.514;2023-02-28T12:30:34;5.80;43.30
55988;DHT22;67216;50.930;4.514;2023-02-28T12:33:07;5.70;41.20
55988;DHT22;67216;50.930;4.514;2023-02-28T12:35:57;5.50;41.10
55988;DHT22;67216;50.930;4.514;2023-02-28T12:38:31;5.50;41.90
55988;DHT22;67216;50.930;4.514;2023-02-28T12:43:50;5.50;42.40
55988;DHT22;67216;50.930;4.514;2023-02-28T12:46:34;5.40;41.80
55988;DHT22;67216;50.930;4.514;2023-02-28T12:51:50;5.60;41.00
55988;DHT22;67216;50.930;4.514;2023-02-28T12:57:15;5.70;41.60
55988;DHT22;67216;50.930;4.514;2023-02-28T12:59:54;5.80;42.50
55988;DHT22;67216;50.930;4.514;2023-02-28T13:10:23;5.90;42.70
55988;DHT22;67216;50.930;4.514;2023-02-28T13:12:53;5.80;40.80
55988;DHT22;67216;50.930;4.514;2023-02-28T13:15:26;5.80;42.10
55988;DHT22;67216;50.930;4.514;2023-02-28T13:17:56;5.80;40.70
55988;DHT22;67216;50.930;4.514;2023-02-28T13:20:33;5.70;41.40
55988;DHT22;67216;50.930;4.514;2023-02-28T13:22:59;5.80;41.70
55988;DHT22;67216;50.930;4.514;2023-02-28T13:28:12;5.70;40.90
55988;DHT22;67216;50.930;4.514;2023-02-28T13:33:22;6.00;40.70
55988;DHT22;67216;50.930;4.514;2023-02-28T13:39:01;6.10;40.90
55988;DHT22;67216;50.930;4.514;2023-02-28T13:44:12;5.60;41.20
55988;DHT22;67216;50.930;4.514;2023-02-28T14:03:18;5.80;42.20
55988;DHT22;67216;50.930;4.514;2023-02-28T14:05:47;5.60;40.70
55988;DHT22;67216;50.930;4.514;2023-02-28T14:08:33;5.60;41.50
55988;DHT22;67216;50.930;4.514;2023-02-28T14:11:06;5.70;41.00
55988;DHT22;67216;50.930;4.514;2023-02-28T14:13:44;5.80;41.10
55988;DHT22;67216;50.930;4.514;2023-02-28T14:16:21;5.70;40.50
55988;DHT22;67216;50.930;4.514;2023-02-28T14:18:59;5.50;40.90
55988;DHT22;67216;50.930;4.514;2023-02-28T14:21:32;5.60;41.40
55988;DHT22;67216;50.930;4.514;2023-02-28T14:27:07;5.70;43.10
55988;DHT22;67216;50.930;4.514;2023-02-28T14:38:23;5.60;41.80
55988;DHT22;67216;50.930;4.514;2023-02-28T14:40:52;5.80;43.20
55988;DHT22;67216;50.930;4.514;2023-02-28T14:43:27;5.80;41.60
55988;DHT22;67216;50.930;4.514;2023-02-28T14:46:04;5.90;43.50
55988;DHT22;67216;50.930;4.514;2023-02-28T14:48:31;5.90;42.30
55988;DHT22;67216;50.930;4.514;2023-02-28T14:51:00;5.90;41.50
55988;DHT22;67216;50.930;4.514;2023-02-28T14:53:29;6.00;43.00
55988;DHT22;67216;50.930;4.514;2023-02-28T14:55:55;5.80;42.90
55988;DHT22;67216;50.930;4.514;2023-02-28T14:58:25;5.90;43.20
55988;DHT22;67216;50.930;4.514;2023-02-28T15:00:53;6.00;41.90
55988;DHT22;67216;50.930;4.514;2023-02-28T15:03:30;5.90;42.40
55988;DHT22;67216;50.930;4.514;2023-02-28T15:06:02;6.00;42.00
55988;DHT22;67216;50.930;4.514;2023-02-28T15:08:28;5.80;43.00
55988;DHT22;67216;50.930;4.514;2023-02-28T15:11:23;5.80;42.40
55988;DHT22;67216;50.930;4.514;2023-02-28T15:13:53;5.80;42.00
55988;DHT22;67216;50.930;4.514;2023-02-28T15:16:24;5.70;42.10
55988;DHT22;67216;50.930;4.514;2023-02-28T15:18:59;5.60;43.50
55988;DHT22;67216;50.930;4.514;2023-02-28T15:21:31;5.70;43.00
55988;DHT22;67216;50.930;4.514;2023-02-28T15:26:38;5.70;43.40
55988;DHT22;67216;50.930;4.514;2023-02-28T15:29:19;5.70;43.40
55988;DHT22;67216;50.930;4.514;2023-02-28T15:32:00;5.60;43.40
55988;DHT22;67216;50.930;4.514;2023-02-28T15:34:41;5.80;44.10
55988;DHT22;67216;50.930;4.514;2023-02-28T15:39:53;5.80;43.60
55988;DHT22;67216;50.930;4.514;2023-02-28T15:42:22;5.70;43.20
55988;DHT22;67216;50.930;4.514;2023-02-28T15:44:49;5.70;43.10
55988;DHT22;67216;50.930;4.514;2023-02-28T15:49:55;5.70;44.00
55988;DHT22;67216;50.930;4.514;2023-02-28T15:52:34;5.70;44.00
55988;DHT22;67216;50.930;4.514;2023-02-28T15:55:26;5.50;44.50
55988;DHT22;67216;50.930;4.514;2023-02-28T15:57:54;5.30;44.80
55988;DHT22;67216;50.930;4.514;2023-02-28T16:00:25;5.30;44.80
55988;DHT22;67216;50.930;4.514;2023-02-28T16:02:52;5.40;44.10
55988;DHT22;67216;50.930;4.514;2023-02-28T16:05:24;5.40;44.90
55988;DHT22;67216;50.930;4.514;2023-02-28T16:07:57;5.50;44.00
55988;DHT22;67216;50.930;4.514;2023-02-28T16:10:24;5.50;44.40
55988;DHT22;67216;50.930;4.514;2023-02-28T16:12:56;5.50;44.10
55988;DHT22;67216;50.930;4.514;2023-02-28T16:15:27;5.40;44.60
55988;DHT22;67216;50.930;4.514;2023-02-28T16:17:55;5.40;44.70
55988;DHT22;67216;50.930;4.514;2023-02-28T16:20:22;5.30;45.10
55988;DHT22;67216;50.930;4.514;2023-02-28T16:22:48;5.10;44.90
55988;DHT22;67216;50.930;4.514;2023-02-28T16:25:27;5.20;45.60
55988;DHT22;67216;50.930;4.514;2023-02-28T16:27:55;5.40;45.10
55988;DHT22;67216;50.930;4.514;2023-02-28T16:30:27;5.30;45.20
55988;DHT22;67216;50.930;4.514;2023-02-28T16:32:55;5.10;45.50
55988;DHT22;67216;50.930;4.514;2023-02-28T16:35:22;5.10;46.10
55988;DHT22;67216;50.930;4.514;2023-02-28T16:37:50;5.20;46.30
55988;DHT22;67216;50.930;4.514;2023-02-28T16:40:19;5.10;45.90
55988;DHT22;67216;50.930;4.514;2023-02-28T16:42:46;5.20;46.10
55988;DHT22;67216;50.930;4.514;2023-02-28T16:45:22;5.10;45.60
55988;DHT22;67216;50.930;4.514;2023-02-28T16:47:48;4.90;45.90
55988;DHT22;67216;50.930;4.514;2023-02-28T16:52:48;5.00;46.10
55988;DHT22;67216;50.930;4.514;2023-02-28T16:55:15;4.90;46.00
55988;DHT22;67216;50.930;4.514;2023-02-28T16:57:41;4.90;46.00
55988;DHT22;67216;50.930;4.514;2023-02-28T17:00:11;4.70;46.30
55988;DHT22;67216;50.930;4.514;2023-02-28T17:02:37;4.80;46.30
55988;DHT22;67216;50.930;4.514;2023-02-28T17:05:03;4.80;46.00
55988;DHT22;67216;50.930;4.514;2023-02-28T17:07:29;4.80;46.40
55988;DHT22;67216;50.930;4.514;2023-02-28T17:09:55;4.80;46.60
55988;DHT22;67216;50.930;4.514;2023-02-28T17:12:21;4.90;46.80
55988;DHT22;67216;50.930;4.514;2023-02-28T17:14:46;4.70;46.40
55988;DHT22;67216;50.930;4.514;2023-02-28T17:17:21;4.60;46.90
55988;DHT22;67216;50.930;4.514;2023-02-28T17:19:47;4.60;47.30
55988;DHT22;67216;50.930;4.514;2023-02-28T17:22:13;4.40;47.60
55988;DHT22;67216;50.930;4.514;2023-02-28T17:24:39;4.70;47.10
55988;DHT22;67216;50.930;4.514;2023-02-28T17:27:05;4.80;46.20
55988;DHT22;67216;50.930;4.514;2023-02-28T17:29:33;4.60;47.00
55988;DHT22;67216;50.930;4.514;2023-02-28T17:31:59;4.70;47.10
55988;DHT22;67216;50.930;4.514;2023-02-28T17:34:24;4.60;47.30
55988;DHT22;67216;50.930;4.514;2023-02-28T17:36:51;4.60;47.00
55988;DHT22;67216;50.930;4.514;2023-02-28T17:39:18;4.40;47.60
55988;DHT22;67216;50.930;4.514;2023-02-28T17:41:53;4.30;48.40
55988;DHT22;67216;50.930;4.514;2023-02-28T17:44:20;4.30;47.90
55988;DHT22;67216;50.930;4.514;2023-02-28T17:46:46;4.00;48.60
55988;DHT22;67216;50.930;4.514;2023-02-28T17:49:12;4.10;48.80
55988;DHT22;67216;50.930;4.514;2023-02-28T17:51:38;3.90;49.20
55988;DHT22;67216;50.930;4.514;2023-02-28T17:54:04;3.80;49.70
55988;DHT22;67216;50.930;4.514;2023-02-28T17:56:30;3.90;49.40
